createdAt,value
2022-11-09T00:00:00.000Z,4.96
2022-11-09T00:15:00.000Z,5.25
2022-11-09T00:30:00.000Z,4.15
2022-11-09T00:45:00.000Z,4.12
2022-11-09T01:00:00.000Z,4.25
2022-11-09T01:15:00.000Z,4.14
2022-11-09T01:30:00.000Z,4.04
2022-11-09T01:45:00.000Z,4.06
2022-11-09T02:00:00.000Z,3.99
2022-11-09T02:15:00.000Z,3.81
2022-11-09T02:30:00.000Z,4.07
2022-11-09T02:45:00.000Z,4.4
2022-11-09T03:15:00.000Z,4.24
2022-11-09T03:30:00.000Z,4.61
2022-11-09T03:45:00.000Z,4
2022-11-09T04:00:00.000Z,4.62
2022-11-09T04:00:00.000Z,4.18
2022-11-09T04:15:00.000Z,3.79
2022-11-09T04:30:00.000Z,3.91
2022-11-09T04:45:00.000Z,4.35
2022-11-09T05:00:00.000Z,4.43
2022-11-09T05:15:00.000Z,6.07
2022-11-09T05:30:00.000Z,5.23
2022-11-09T05:45:00.000Z,4.2
2022-11-09T06:00:00.000Z,4.37
2022-11-09T06:15:00.000Z,4.14
2022-11-09T06:30:00.000Z,4.13
2022-11-09T06:45:00.000Z,3.87
2022-11-09T07:00:00.000Z,4.02
2022-11-09T07:15:00.000Z,4.08
2022-11-09T07:30:00.000Z,3.78
2022-11-09T07:45:00.000Z,3.38
2022-11-09T08:00:00.000Z,2.12
2022-11-09T08:15:00.000Z,2.62
2022-11-09T08:30:00.000Z,2.75
2022-11-09T08:45:00.000Z,2.28
2022-11-09T09:00:00.000Z,2.04
2022-11-09T09:15:00.000Z,2.14
2022-11-09T09:30:00.000Z,2.69
2022-11-09T09:45:00.000Z,10.26
2022-11-09T10:00:00.000Z,9.73
2022-11-09T10:15:00.000Z,7.65
2022-11-09T10:30:00.000Z,5.35
2022-11-09T10:45:00.000Z,5.89
2022-11-09T11:00:00.000Z,4.59
2022-11-09T11:15:00.000Z,4.42
2022-11-09T11:30:00.000Z,4.27
2022-11-09T11:45:00.000Z,4.62
2022-11-09T12:00:00.000Z,5.06
2022-11-09T12:15:00.000Z,4.78
2022-11-09T12:30:00.000Z,4.71
2022-11-09T12:45:00.000Z,4.71
2022-11-09T13:00:00.000Z,5
2022-11-09T13:15:00.000Z,4.49
2022-11-09T13:30:00.000Z,4.76
2022-11-09T13:45:00.000Z,4.78
2022-11-09T14:00:00.000Z,4.33
2022-11-09T14:15:00.000Z,5.38
2022-11-09T14:30:00.000Z,4.99
2022-11-09T14:45:00.000Z,7.81
2022-11-09T15:00:00.000Z,9.95
2022-11-09T15:15:00.000Z,10.18
2022-11-09T15:30:00.000Z,13.52
2022-11-09T15:45:00.000Z,10.55
2022-11-09T16:00:00.000Z,15.38
2022-11-09T16:15:00.000Z,16.65
2022-11-09T16:30:00.000Z,13.73
2022-11-09T16:45:00.000Z,18.03
2022-11-09T17:00:00.000Z,24.06
2022-11-09T17:15:00.000Z,26.15
2022-11-09T17:30:00.000Z,25.31
2022-11-09T17:45:00.000Z,19.68
2022-11-09T18:00:00.000Z,16.98
2022-11-09T18:15:00.000Z,27.19
2022-11-09T18:30:00.000Z,44.22
2022-11-09T18:45:00.000Z,29.74
2022-11-09T19:00:00.000Z,25.66
2022-11-09T19:30:00.000Z,21.2
2022-11-09T19:45:00.000Z,21.84
2022-11-09T20:00:00.000Z,37.34
2022-11-09T20:15:00.000Z,27.94
2022-11-09T20:30:00.000Z,12.06
2022-11-09T20:45:00.000Z,25.53
2022-11-09T21:00:00.000Z,21.4
2022-11-09T21:15:00.000Z,8.64
2022-11-09T21:30:00.000Z,9.14
2022-11-09T21:45:00.000Z,11.26
2022-11-09T22:00:00.000Z,13.94
2022-11-09T22:15:00.000Z,14
2022-11-09T22:30:00.000Z,16.6
2022-11-09T22:45:00.000Z,17.26
2022-11-09T23:00:00.000Z,13.98
2022-11-09T23:15:00.000Z,8.46
2022-11-09T23:30:00.000Z,8.85
2022-11-09T23:45:00.000Z,7.47
